Washington, GA

12:15 PM EDT on August 29, 2016 (GMT -0400)
Washington-Wilkes County | | Change Station

Elev 646 ft 33.78 °N, 82.82 °W | Updated 20 minutes ago

Clear
Clear
88 °F
Feels Like 94 °F
N
6
Wind Variable Wind from NE

Today
High -- | Low -- °F
--% Chance of Precip.
Yesterday
High -- | Low -- °F
Precip. -- in
Pressure 30.14 in
Visibility 10.0 miles
Clouds Clear
Heat Index 94 °F
Dew Point 72 °F
Humidity 58%
Rainfall 0.00 in
Snow Depth Not available.
7:03 AM 8:00 PM
Waning Crescent, 8% visible
METAR KIIY 291555Z AUTO 04005KT 10SM CLR 31/22 A3014 RMK AO2
Pressure 30.14 in
Visibility 10.0 miles
Clouds Clear
Heat Index 94 °F
Dew Point 72 °F
Humidity 58%
Rainfall 0.00 in
Snow Depth Not available.
7:03 AM 8:00 PM
Waning Crescent, 8% visible
METAR KIIY 291555Z AUTO 04005KT 10SM CLR 31/22 A3014 RMK AO2

10-Day Weather Forecast

Almanac

Astronomy

Aug. 29, 2016 Rise Set
Actual Time
Civil Twilight
Nautical Twilight
Astronomical Twilight
Moon
Length of Visible Light
Length of Day
Tomorrow will be .
, % of the Moon is Illuminated

Today's Extremes

State Highs State Lows

Community

WunderPhotos

Upload Photos

1,935,871 photos uploaded!

WunderBlog® & News

Nearby

Air Quality

  Air Quality AQ Index Pollutant
Not available.

Snow Depth

Station Depth Elevation

Earthquake Activity

City Distance Mag. Time & Date
Minimum magnitude displayed is 2.5.

Coastal Water Temperatures

Place Temperature

Stations

Nearby Weather Stations

Station Location Temp. Windchill Dew Point Humidity Wind Precip. Elev Updated Type
                   

Watches & Warnings

There are currently no watches in effect.